Time;durP1;ratioP1;P1;durP2;ratioP2;P2;SDS_P1;SDS_P2;PMS_P1;PMS_P2;Temp;Humidity;BMP_temperature;BMP_pressure;BME280_temperature;BME280_humidity;BME280_pressure;Samples;Min_cycle;Max_cycle;Signal;HPM_P1;HPM_P2
2022/12/17 15:21:23;;;;;;;15.93;4.22;;;18.30;60.20;;;;;;5021831;23;20588;-76
2022/12/17 15:23:50;;;;;;;23.27;5.20;;;18.30;61.20;;;;;;4898999;29;20233;-73
2022/12/17 15:26:17;;;;;;;13.93;4.80;;;18.30;61.50;;;;;;4899093;29;20573;-76
2022/12/17 15:28:44;;;;;;;10.32;5.03;;;18.30;61.30;;;;;;4899148;29;20673;-76
2022/12/17 15:31:12;;;;;;;11.88;4.45;;;18.40;61.50;;;;;;4899215;29;20229;-77
2022/12/17 15:33:39;;;;;;;14.23;4.68;;;18.40;61.70;;;;;;4899022;29;20205;-77
2022/12/17 15:36:07;;;;;;;15.50;4.72;;;18.40;62.00;;;;;;4899041;29;20221;-76
2022/12/17 15:38:35;;;;;;;19.50;4.63;;;18.40;62.00;;;;;;4921313;23;20692;-75
2022/12/17 15:43:09;;;;;;;13.63;4.07;;;18.40;62.20;;;;;;4900069;29;20218;-77
2022/12/17 15:43:50;;;;;;;17.98;5.63;;;18.50;62.40;;;;;;4899394;29;20261;-77
2022/12/17 15:46:18;;;;;;;12.80;4.68;;;18.50;62.60;;;;;;4899319;29;20676;-77
2022/12/17 15:48:44;;;;;;;17.67;5.00;;;18.60;62.90;;;;;;4900270;29;20349;-78
2022/12/17 15:51:11;;;;;;;10.32;4.47;;;18.70;63.00;;;;;;4899251;29;20191;-76
2022/12/17 15:53:39;;;;;;;18.40;4.75;;;18.50;62.60;;;;;;4898040;29;20202;-76
2022/12/17 15:56:07;;;;;;;8.25;4.60;;;18.40;62.70;;;;;;4898457;29;20232;-75
2022/12/17 15:58:34;;;;;;;17.45;4.70;;;18.40;62.60;;;;;;4898612;29;20230;-76
2022/12/17 16:01:00;;;;;;;16.00;4.95;;;18.40;63.10;;;;;;4898595;29;20209;-76
2022/12/17 16:03:27;;;;;;;13.82;5.28;;;18.40;63.10;;;;;;4898718;29;20217;-76
2022/12/17 16:05:54;;;;;;;11.30;4.80;;;18.40;63.40;;;;;;4898664;29;20209;-76
2022/12/17 16:08:20;;;;;;;10.20;5.05;;;18.30;63.50;;;;;;4898555;29;20226;-76
2022/12/17 16:10:48;;;;;;;15.25;4.35;;;18.30;63.60;;;;;;4898591;29;20232;-75
2022/12/17 16:13:15;;;;;;;9.98;4.38;;;18.30;64.00;;;;;;4898610;29;20209;-75
2022/12/17 16:15:42;;;;;;;16.00;4.45;;;18.30;64.20;;;;;;4898556;29;20212;-75
2022/12/17 16:18:09;;;;;;;10.07;4.50;;;18.30;64.50;;;;;;4898487;29;20212;-75
2022/12/17 16:20:36;;;;;;;17.58;5.50;;;18.30;65.20;;;;;;4898460;29;20211;-75
2022/12/17 16:23:02;;;;;;;12.25;4.53;;;18.30;69.00;;;;;;4898075;29;20716;-75
2022/12/17 16:25:29;;;;;;;11.75;5.05;;;18.20;68.10;;;;;;4898373;29;20663;-75
2022/12/17 16:27:57;;;;;;;12.35;4.72;;;18.20;68.90;;;;;;4898126;29;20197;-75
2022/12/17 16:30:24;;;;;;;9.73;4.18;;;18.20;67.30;;;;;;4898544;29;20200;-73
2022/12/17 16:32:51;;;;;;;12.15;5.20;;;18.30;67.60;;;;;;4898368;29;20201;-74
2022/12/17 16:35:17;;;;;;;7.13;4.32;;;18.20;68.30;;;;;;4898419;29;20209;-73
2022/12/17 16:37:44;;;;;;;11.10;4.20;;;18.20;68.60;;;;;;4898714;29;20194;-74
2022/12/17 16:40:11;;;;;;;11.65;4.50;;;18.30;73.70;;;;;;4897985;29;20237;-74
2022/12/17 16:42:38;;;;;;;7.70;4.05;;;18.20;75.90;;;;;;4898505;29;20202;-75
2022/12/17 16:45:07;;;;;;;7.70;4.15;;;18.20;65.40;;;;;;4898260;29;20213;-74
2022/12/17 16:47:34;;;;;;;9.35;4.07;;;18.20;65.80;;;;;;4898851;29;20565;-73
2022/12/17 16:50:01;;;;;;;7.07;4.25;;;18.20;66.20;;;;;;4899241;29;20242;-73
2022/12/17 16:52:28;;;;;;;7.22;4.20;;;18.20;66.40;;;;;;4899421;29;20209;-74
2022/12/17 16:54:54;;;;;;;7.88;4.25;;;18.20;66.10;;;;;;4899272;29;20686;-74
2022/12/17 16:57:21;;;;;;;8.73;4.43;;;18.10;66.30;;;;;;4899147;29;20232;-74
2022/12/17 16:59:48;;;;;;;12.43;4.47;;;18.20;66.30;;;;;;4899035;29;20222;-74
2022/12/17 17:02:16;;;;;;;25.02;7.80;;;18.10;67.20;;;;;;4899062;29;20212;-74
2022/12/17 17:04:43;;;;;;;28.02;8.73;;;18.10;65.20;;;;;;4899129;29;20230;-73
2022/12/17 17:07:09;;;;;;;55.78;13.02;;;18.10;64.60;;;;;;4901095;29;20216;-73
2022/12/17 17:09:38;;;;;;;59.20;13.35;;;18.20;64.70;;;;;;4901895;29;20229;-73
2022/12/17 17:12:07;;;;;;;49.13;13.85;;;18.20;64.80;;;;;;4901275;29;20700;-72
2022/12/17 17:14:33;;;;;;;74.95;17.10;;;18.20;65.00;;;;;;4901455;29;20198;-73
2022/12/17 17:17:00;;;;;;;79.00;17.73;;;18.20;65.30;;;;;;4901120;29;20577;-72
2022/12/17 17:19:28;;;;;;;83.40;19.35;;;18.20;65.90;;;;;;4901354;29;20233;-73
2022/12/17 17:21:55;;;;;;;86.43;19.95;;;18.20;65.90;;;;;;4901069;29;20574;-73
2022/12/17 17:24:24;;;;;;;79.47;19.33;;;18.20;65.90;;;;;;4900953;29;20698;-73
2022/12/17 17:26:52;;;;;;;69.75;17.83;;;18.20;65.90;;;;;;4901291;29;20261;-73
2022/12/17 17:29:19;;;;;;;66.22;20.15;;;18.20;66.00;;;;;;4901165;29;20225;-73
2022/12/17 17:31:46;;;;;;;76.18;20.30;;;18.20;66.30;;;;;;4901195;29;20257;-73
2022/12/17 17:34:14;;;;;;;69.25;19.60;;;18.20;67.30;;;;;;4901196;29;20212;-73
2022/12/17 17:36:43;;;;;;;77.70;19.60;;;18.30;66.80;;;;;;4901136;29;20205;-73
2022/12/17 17:39:17;;;;;;;65.43;19.27;;;18.20;66.90;;;;;;4900930;29;20602;-73
2022/12/17 17:41:43;;;;;;;68.85;19.00;;;18.30;67.20;;;;;;4900790;29;20218;-72
2022/12/17 17:44:12;;;;;;;69.97;19.05;;;18.30;67.60;;;;;;4900968;29;20236;-72
2022/12/17 17:46:40;;;;;;;73.70;18.48;;;18.20;67.60;;;;;;4900970;29;20573;-73
2022/12/17 17:49:08;;;;;;;68.75;17.95;;;18.30;68.00;;;;;;4900853;29;20240;-72
2022/12/17 17:51:37;;;;;;;70.10;18.90;;;18.20;68.10;;;;;;4901884;29;20307;-72
2022/12/17 17:54:05;;;;;;;69.03;18.98;;;18.40;69.40;;;;;;4904019;29;20614;-72
2022/12/17 17:56:34;;;;;;;57.20;17.15;;;18.40;70.40;;;;;;4906568;29;20217;-72
2022/12/17 17:59:04;;;;;;;63.92;16.73;;;18.50;71.20;;;;;;4908341;29;20235;-73
2022/12/17 18:01:34;;;;;;;58.55;16.75;;;18.70;71.90;;;;;;4908956;29;20243;-73
2022/12/17 18:04:04;;;;;;;64.38;16.67;;;18.80;72.60;;;;;;4910252;29;20218;-72
2022/12/17 18:06:32;;;;;;;55.20;16.90;;;18.90;72.80;;;;;;4907439;29;20190;-72
2022/12/17 18:09:00;;;;;;;55.90;15.57;;;19.20;73.40;;;;;;4909096;29;20254;-73
2022/12/17 18:11:31;;;;;;;50.53;16.15;;;19.20;73.60;;;;;;4908538;29;20213;-73
2022/12/17 18:13:59;;;;;;;55.63;15.20;;;19.30;73.80;;;;;;4908956;29;20197;-73
2022/12/17 18:16:29;;;;;;;46.22;14.82;;;19.30;73.80;;;;;;4908901;29;20733;-73
2022/12/17 18:18:58;;;;;;;55.40;14.32;;;19.40;74.00;;;;;;4907732;29;20297;-73
2022/12/17 18:21:26;;;;;;;54.22;14.15;;;19.50;74.10;;;;;;4908603;29;20246;-73
2022/12/17 18:23:58;;;;;;;47.45;14.38;;;19.60;74.00;;;;;;4908323;29;20315;-73
2022/12/17 18:26:29;;;;;;;36.53;13.10;;;19.60;73.90;;;;;;4908964;29;20257;-73
2022/12/17 18:28:57;;;;;;;41.35;13.25;;;19.60;74.00;;;;;;4908234;29;20221;-73
2022/12/17 18:31:26;;;;;;;42.38;13.32;;;19.70;74.00;;;;;;4908294;29;20229;-73
2022/12/17 18:33:58;;;;;;;35.17;12.55;;;19.70;74.30;;;;;;4908534;29;20202;-74
2022/12/17 18:36:27;;;;;;;34.38;12.70;;;19.80;74.80;;;;;;4908948;29;20209;-74
2022/12/17 18:38:58;;;;;;;37.85;12.50;;;19.90;75.00;;;;;;4906666;29;20325;-74
2022/12/17 18:44:12;;;;;;;43.85;13.32;;;20.00;74.70;;;;;;4902413;29;20231;-73
2022/12/17 18:46:39;;;;;;;38.00;11.93;;;20.00;75.40;;;;;;4902233;29;20675;-77
2022/12/17 18:49:08;;;;;;;41.78;12.55;;;20.20;75.90;;;;;;4902478;29;20728;-77
2022/12/17 18:51:37;;;;;;;39.08;11.52;;;20.10;76.60;;;;;;4902566;29;20194;-76
2022/12/17 18:54:05;;;;;;;36.05;11.35;;;20.10;76.80;;;;;;4899808;29;20606;-76
2022/12/17 18:56:33;;;;;;;45.75;11.27;;;20.10;78.60;;;;;;4899751;29;20260;-74
2022/12/17 18:59:00;;;;;;;38.33;10.82;;;20.20;74.10;;;;;;4899977;29;20225;-74
2022/12/17 19:01:31;;;;;;;33.13;10.88;;;20.20;79.30;;;;;;4899622;29;20233;-74
2022/12/17 19:04:01;;;;;;;36.80;10.68;;;20.20;77.70;;;;;;4899538;29;20221;-74
2022/12/17 19:06:27;;;;;;;31.75;10.45;;;20.20;78.50;;;;;;4899490;29;20232;-74
2022/12/17 19:08:54;;;;;;;37.30;10.88;;;20.10;78.20;;;;;;4899429;29;20222;-74
2022/12/17 19:11:22;;;;;;;32.38;10.73;;;20.00;74.70;;;;;;4899122;29;20209;-74
2022/12/17 19:13:49;;;;;;;41.67;10.93;;;20.00;74.10;;;;;;4899585;29;20206;-74
2022/12/17 19:16:18;;;;;;;33.92;10.52;;;19.90;73.10;;;;;;4899332;29;20209;-74
2022/12/17 19:18:51;;;;;;;32.67;9.23;;;19.90;72.60;;;;;;4898925;29;20225;-74
2022/12/17 19:21:18;;;;;;;30.60;10.13;;;19.80;71.80;;;;;;4899347;29;20190;-74
2022/12/17 19:23:45;;;;;;;31.23;9.60;;;19.70;71.50;;;;;;4899155;29;20237;-74
2022/12/17 19:26:14;;;;;;;31.85;9.73;;;19.70;71.30;;;;;;4899197;29;20205;-74
2022/12/17 19:28:41;;;;;;;24.65;9.02;;;19.70;71.10;;;;;;4898440;29;20315;-74
2022/12/17 19:31:08;;;;;;;32.20;10.00;;;19.50;71.10;;;;;;4899092;29;20285;-74
2022/12/17 19:33:35;;;;;;;31.55;9.23;;;19.50;70.80;;;;;;4899006;29;20674;-74
2022/12/17 19:36:05;;;;;;;29.63;9.63;;;19.40;71.00;;;;;;4899048;29;20205;-74
2022/12/17 19:38:32;;;;;;;26.08;8.50;;;19.30;70.70;;;;;;4898965;29;20233;-74
2022/12/17 19:41:03;;;;;;;28.23;9.40;;;19.30;70.70;;;;;;4898693;29;20210;-77
2022/12/17 19:43:30;;;;;;;28.92;8.73;;;19.20;70.70;;;;;;4898925;29;20194;-75
2022/12/17 19:46:02;;;;;;;26.83;9.05;;;19.20;70.80;;;;;;4899021;29;20243;-76
2022/12/17 19:48:31;;;;;;;21.60;8.70;;;19.10;70.60;;;;;;4898875;29;20250;-76
2022/12/17 19:50:58;;;;;;;25.27;8.65;;;19.10;70.90;;;;;;4898851;29;20233;-76
2022/12/17 19:53:27;;;;;;;33.50;9.00;;;18.90;70.70;;;;;;4899192;29;20209;-76
2022/12/17 19:55:54;;;;;;;26.63;8.93;;;19.00;71.00;;;;;;4899081;29;20214;-76
2022/12/17 19:58:22;;;;;;;23.25;8.75;;;18.90;71.00;;;;;;4898635;29;20772;-76
2022/12/17 20:00:49;;;;;;;21.13;8.07;;;18.90;70.90;;;;;;4899160;29;20221;-76
2022/12/17 20:03:16;;;;;;;18.40;7.57;;;18.80;71.00;;;;;;4899136;29;20212;-75
2022/12/17 20:05:44;;;;;;;20.33;8.43;;;18.80;71.00;;;;;;4898590;29;20226;-75
2022/12/17 20:08:10;;;;;;;21.35;8.20;;;18.80;70.80;;;;;;4898270;29;20687;-75
2022/12/17 20:10:38;;;;;;;25.13;8.18;;;18.80;70.90;;;;;;4898596;29;20642;-75
2022/12/17 20:13:05;;;;;;;20.90;8.25;;;18.80;70.80;;;;;;4898534;29;20217;-75
2022/12/17 20:15:32;;;;;;;18.38;7.85;;;18.70;70.80;;;;;;4898877;29;20197;-75
2022/12/17 20:17:58;;;;;;;20.17;7.97;;;18.70;70.80;;;;;;4898529;29;20570;-75
2022/12/17 20:20:25;;;;;;;19.88;7.55;;;18.70;70.60;;;;;;4898591;29;20212;-75
2022/12/17 20:22:52;;;;;;;20.48;8.82;;;18.60;70.40;;;;;;4898427;29;20208;-75
2022/12/17 20:25:19;;;;;;;22.55;8.05;;;18.60;70.40;;;;;;4898391;29;20229;-75
2022/12/17 20:27:47;;;;;;;15.15;7.20;;;18.60;70.60;;;;;;4898685;29;20206;-75
2022/12/17 20:30:14;;;;;;;21.67;7.90;;;18.50;70.70;;;;;;4898335;29;20230;-75
2022/12/17 20:32:40;;;;;;;18.73;8.00;;;18.50;70.70;;;;;;4898415;29;20220;-75
2022/12/17 20:35:08;;;;;;;16.60;7.32;;;18.40;70.70;;;;;;4898412;29;20201;-76
2022/12/17 20:37:35;;;;;;;16.55;7.57;;;18.40;71.00;;;;;;4898287;29;20233;-75
2022/12/17 20:40:02;;;;;;;18.13;8.35;;;18.40;70.80;;;;;;4898737;29;20249;-76
2022/12/17 20:42:28;;;;;;;18.98;6.57;;;18.40;70.90;;;;;;4902191;29;20205;-76
2022/12/17 20:44:56;;;;;;;20.25;7.18;;;18.40;70.90;;;;;;4902043;29;20224;-75
2022/12/17 20:47:23;;;;;;;24.15;7.13;;;18.50;71.70;;;;;;4902199;29;20213;-75
2022/12/17 20:49:50;;;;;;;23.38;7.75;;;18.60;72.20;;;;;;4901609;29;20226;-76
2022/12/17 20:52:16;;;;;;;23.42;7.63;;;18.60;72.40;;;;;;4901917;29;20210;-76
2022/12/17 20:54:43;;;;;;;23.10;7.55;;;18.60;72.00;;;;;;4901628;29;20678;-76
2022/12/17 20:57:10;;;;;;;26.65;7.45;;;18.60;72.30;;;;;;4901860;29;20193;-76
2022/12/17 20:59:37;;;;;;;20.45;7.68;;;18.50;72.50;;;;;;4901726;29;20226;-75
2022/12/17 21:02:05;;;;;;;19.40;7.75;;;18.50;73.20;;;;;;4901443;29;20206;-76
2022/12/17 21:04:32;;;;;;;17.80;6.93;;;18.50;74.00;;;;;;4901873;29;20236;-76
2022/12/17 21:06:59;;;;;;;16.60;6.97;;;18.40;75.10;;;;;;4901675;29;20322;-76
2022/12/17 21:09:26;;;;;;;20.40;7.38;;;18.50;78.10;;;;;;4901559;29;20232;-76
2022/12/17 21:11:53;;;;;;;17.23;7.32;;;18.50;77.10;;;;;;4901578;29;20202;-76
2022/12/17 21:14:19;;;;;;;17.38;7.30;;;18.40;83.80;;;;;;4901186;29;20296;-76
2022/12/17 21:16:46;;;;;;;16.08;6.65;;;18.40;76.00;;;;;;4901526;29;20212;-76
2022/12/17 21:19:17;;;;;;;19.10;7.40;;;18.40;77.70;;;;;;4901381;29;20225;-76
2022/12/17 21:21:44;;;;;;;12.75;6.15;;;18.40;78.70;;;;;;4901401;29;20190;-75
2022/12/17 21:24:11;;;;;;;18.00;6.70;;;18.40;80.80;;;;;;4901310;29;20217;-75
2022/12/17 21:26:40;;;;;;;27.77;7.53;;;18.40;77.90;;;;;;4901334;29;20210;-76
2022/12/17 21:29:08;;;;;;;13.23;7.07;;;18.40;77.30;;;;;;4901282;29;20237;-76
2022/12/17 21:31:39;;;;;;;14.85;7.10;;;18.30;78.90;;;;;;4901258;29;20202;-75
2022/12/17 21:34:07;;;;;;;15.32;6.25;;;18.30;77.90;;;;;;4901251;29;20218;-75
2022/12/17 21:36:36;;;;;;;14.65;6.57;;;18.30;77.70;;;;;;4900895;29;20573;-75
2022/12/17 21:39:03;;;;;;;17.15;6.75;;;18.30;78.80;;;;;;4900743;29;20616;-75
2022/12/17 21:41:32;;;;;;;12.07;6.72;;;18.30;81.00;;;;;;4901079;29;20202;-75
2022/12/17 21:44:01;;;;;;;14.68;6.43;;;18.30;76.90;;;;;;4901315;29;20681;-74
2022/12/17 21:46:29;;;;;;;14.05;7.05;;;18.30;79.40;;;;;;4900970;29;20205;-74
2022/12/17 21:48:56;;;;;;;19.27;6.13;;;18.20;81.00;;;;;;4900842;29;20252;-74
2022/12/17 21:51:23;;;;;;;15.00;6.78;;;18.20;77.60;;;;;;4900458;29;20213;-74
2022/12/17 21:53:54;;;;;;;11.95;6.22;;;18.20;77.80;;;;;;4900470;29;20213;-74
2022/12/17 21:56:22;;;;;;;16.65;6.70;;;18.20;79.30;;;;;;4900510;29;20679;-74
2022/12/17 21:58:49;;;;;;;13.13;6.18;;;18.20;80.10;;;;;;4900748;29;20230;-74
2022/12/17 22:01:18;;;;;;;12.02;6.38;;;18.20;82.10;;;;;;4900699;29;20233;-74
2022/12/17 22:03:45;;;;;;;12.05;6.60;;;18.20;76.60;;;;;;4900464;29;20206;-74
2022/12/17 22:06:14;;;;;;;21.63;6.57;;;18.20;77.20;;;;;;4900545;29;20307;-74
2022/12/17 22:08:42;;;;;;;11.40;6.07;;;18.20;76.40;;;;;;4900512;29;20226;-74
2022/12/17 22:11:11;;;;;;;15.13;6.88;;;18.20;77.60;;;;;;4900575;29;20206;-74
2022/12/17 22:16:23;;;;;;;16.65;6.78;;;18.30;78.40;;;;;;4900547;29;20261;-74
2022/12/17 22:18:50;;;;;;;19.67;6.07;;;18.30;79.60;;;;;;4900051;29;20240;-74
2022/12/17 22:21:17;;;;;;;14.95;6.35;;;18.20;80.10;;;;;;4900022;29;20625;-74
2022/12/17 22:23:46;;;;;;;19.45;6.15;;;18.20;81.30;;;;;;4900373;29;20229;-74
2022/12/17 22:26:15;;;;;;;11.90;6.50;;;18.20;82.60;;;;;;4900217;29;20633;-73
2022/12/17 22:28:43;;;;;;;10.75;5.82;;;18.20;84.70;;;;;;4900090;29;20281;-73
2022/12/17 22:33:57;;;;;;;8.85;6.45;;;18.20;79.70;;;;;;4900207;29;20230;-73
2022/12/17 22:36:24;;;;;;;9.98;6.55;;;18.20;79.10;;;;;;4900081;29;20202;-74
2022/12/17 22:38:51;;;;;;;11.55;5.78;;;18.20;79.90;;;;;;4899812;29;20245;-74
2022/12/17 22:44:01;;;;;;;11.65;6.45;;;18.20;80.70;;;;;;4899425;29;20206;-74
2022/12/17 22:46:29;;;;;;;8.40;6.20;;;18.20;80.80;;;;;;4899788;29;20261;-74
2022/12/17 22:48:56;;;;;;;11.15;6.00;;;18.20;81.00;;;;;;4900572;29;20579;-74
2022/12/17 22:51:23;;;;;;;12.95;6.30;;;18.20;81.40;;;;;;4899466;29;20729;-74
2022/12/17 22:53:50;;;;;;;10.98;6.07;;;18.20;81.50;;;;;;4899766;29;20577;-74
2022/12/17 22:56:19;;;;;;;8.38;5.97;;;18.20;81.70;;;;;;4899696;29;20206;-73
